sensor_id;sensor_type;location;lat;lon;timestamp;pressure;altitude;pressure_sealevel;temperature;humidity
76331;BME280;65148;51.912;15.570;2022-12-08T00:05:07;100868.64;;;2.01;94.94
76331;BME280;65148;51.912;15.570;2022-12-08T00:20:34;100850.39;;;1.73;95.02
76331;BME280;65148;51.912;15.570;2022-12-08T00:35:35;100866.14;;;1.33;97.88
76331;BME280;65148;51.912;15.570;2022-12-08T00:50:37;100853.72;;;1.39;99.23
76331;BME280;65148;51.912;15.570;2022-12-08T01:05:38;100870.91;;;1.31;100.00
76331;BME280;65148;51.912;15.570;2022-12-08T01:21:04;100875.30;;;1.44;97.92
76331;BME280;65148;51.912;15.570;2022-12-08T01:36:07;100863.55;;;1.45;97.08
76331;BME280;65148;51.912;15.570;2022-12-08T01:51:09;100867.79;;;1.34;96.45
76331;BME280;65148;51.912;15.570;2022-12-08T02:06:10;100862.55;;;1.21;95.45
76331;BME280;65148;51.912;15.570;2022-12-08T02:21:37;100853.89;;;1.01;95.63
76331;BME280;65148;51.912;15.570;2022-12-08T03:07:31;100829.95;;;1.24;96.95
76331;BME280;65148;51.912;15.570;2022-12-08T03:22:33;100812.13;;;1.48;97.37
76331;BME280;65148;51.912;15.570;2022-12-08T03:37:35;100800.20;;;1.62;97.76
76331;BME280;65148;51.912;15.570;2022-12-08T03:53:03;100800.77;;;1.64;98.19
76331;BME280;65148;51.912;15.570;2022-12-08T04:08:04;100778.24;;;1.83;98.01
76331;BME280;65148;51.912;15.570;2022-12-08T04:23:06;100762.41;;;1.94;97.64
76331;BME280;65148;51.912;15.570;2022-12-08T04:38:07;100740.67;;;1.95;97.80
76331;BME280;65148;51.912;15.570;2022-12-08T04:53:30;100725.49;;;1.89;97.96
76331;BME280;65148;51.912;15.570;2022-12-08T05:08:32;100726.20;;;1.96;98.23
76331;BME280;65148;51.912;15.570;2022-12-08T05:23:33;100712.07;;;1.89;99.40
76331;BME280;65148;51.912;15.570;2022-12-08T05:38:34;100703.22;;;2.00;99.03
76331;BME280;65148;51.912;15.570;2022-12-08T05:53:57;100691.21;;;2.03;98.83
76331;BME280;65148;51.912;15.570;2022-12-08T06:08:58;100689.95;;;2.05;98.75
76331;BME280;65148;51.912;15.570;2022-12-08T06:23:59;100683.63;;;2.11;98.93
76331;BME280;65148;51.912;15.570;2022-12-08T06:39:00;100692.02;;;1.92;100.00
76331;BME280;65148;51.912;15.570;2022-12-08T06:54:23;100714.77;;;1.89;100.00
76331;BME280;65148;51.912;15.570;2022-12-08T07:09:24;100716.33;;;2.20;100.00
76331;BME280;65148;51.912;15.570;2022-12-08T07:24:25;100718.55;;;2.23;100.00
76331;BME280;65148;51.912;15.570;2022-12-08T07:39:26;100723.70;;;2.25;100.00
76331;BME280;65148;51.912;15.570;2022-12-08T07:54:49;100722.87;;;2.12;100.00
76331;BME280;65148;51.912;15.570;2022-12-08T08:09:50;100710.51;;;2.35;100.00
76331;BME280;65148;51.912;15.570;2022-12-08T08:24:52;100719.04;;;2.43;100.00
76331;BME280;65148;51.912;15.570;2022-12-08T08:39:53;100718.67;;;2.51;100.00
76331;BME280;65148;51.912;15.570;2022-12-08T08:55:17;100719.04;;;2.55;100.00
76331;BME280;65148;51.912;15.570;2022-12-08T09:10:18;100717.03;;;2.62;100.00
76331;BME280;65148;51.912;15.570;2022-12-08T09:25:19;100711.25;;;3.05;100.00
76331;BME280;65148;51.912;15.570;2022-12-08T09:40:22;100700.14;;;3.13;100.00
76331;BME280;65148;51.912;15.570;2022-12-08T09:55:49;100694.69;;;3.25;100.00
76331;BME280;65148;51.912;15.570;2022-12-08T10:10:57;100692.03;;;3.53;100.00
76331;BME280;65148;51.912;15.570;2022-12-08T10:41:25;100674.89;;;3.59;100.00
76331;BME280;65148;51.912;15.570;2022-12-08T10:56:29;100655.17;;;3.71;100.00
76331;BME280;65148;51.912;15.570;2022-12-08T11:11:47;100652.34;;;3.94;100.00
76331;BME280;65148;51.912;15.570;2022-12-08T11:27:07;100642.70;;;3.81;100.00
76331;BME280;65148;51.912;15.570;2022-12-08T11:42:12;100622.11;;;4.25;100.00
76331;BME280;65148;51.912;15.570;2022-12-08T11:57:15;100615.31;;;4.39;99.94
76331;BME280;65148;51.912;15.570;2022-12-08T12:28:04;100595.08;;;4.59;97.21
76331;BME280;65148;51.912;15.570;2022-12-08T12:43:17;100600.23;;;4.60;96.91
76331;BME280;65148;51.912;15.570;2022-12-08T12:58:35;100584.25;;;4.75;96.47
76331;BME280;65148;51.912;15.570;2022-12-08T13:13:37;100579.39;;;4.56;96.08
76331;BME280;65148;51.912;15.570;2022-12-08T13:44:21;100556.50;;;4.80;94.53
76331;BME280;65148;51.912;15.570;2022-12-08T13:59:29;100564.48;;;4.48;95.41
76331;BME280;65148;51.912;15.570;2022-12-08T14:14:41;100557.92;;;4.88;92.67
76331;BME280;65148;51.912;15.570;2022-12-08T14:31:04;100557.27;;;4.75;91.13
76331;BME280;65148;51.912;15.570;2022-12-08T15:01:47;100562.85;;;4.47;91.19
76331;BME280;65148;51.912;15.570;2022-12-08T15:16:50;100561.09;;;4.58;90.48
76331;BME280;65148;51.912;15.570;2022-12-08T15:31:56;100564.86;;;4.57;90.74
76331;BME280;65148;51.912;15.570;2022-12-08T15:46:58;100567.26;;;4.53;90.66
76331;BME280;65148;51.912;15.570;2022-12-08T16:02:14;100555.23;;;4.22;91.07
76331;BME280;65148;51.912;15.570;2022-12-08T16:17:16;100556.16;;;4.11;91.92
76331;BME280;65148;51.912;15.570;2022-12-08T16:32:17;100556.43;;;4.10;92.02
76331;BME280;65148;51.912;15.570;2022-12-08T16:47:18;100571.88;;;3.97;92.41
76331;BME280;65148;51.912;15.570;2022-12-08T17:02:39;100565.28;;;3.88;91.92
76331;BME280;65148;51.912;15.570;2022-12-08T17:17:40;100572.70;;;3.81;91.13
76331;BME280;65148;51.912;15.570;2022-12-08T17:32:41;100578.75;;;3.88;90.14
76331;BME280;65148;51.912;15.570;2022-12-08T17:47:42;100587.80;;;3.99;90.06
76331;BME280;65148;51.912;15.570;2022-12-08T18:03:05;100591.48;;;3.76;90.22
76331;BME280;65148;51.912;15.570;2022-12-08T18:18:06;100588.12;;;3.86;90.79
76331;BME280;65148;51.912;15.570;2022-12-08T18:33:07;100585.92;;;3.99;92.02
76331;BME280;65148;51.912;15.570;2022-12-08T18:48:08;100597.17;;;3.80;93.94
76331;BME280;65148;51.912;15.570;2022-12-08T19:03:31;100583.79;;;3.68;95.60
76331;BME280;65148;51.912;15.570;2022-12-08T19:18:32;100592.20;;;3.72;96.54
76331;BME280;65148;51.912;15.570;2022-12-08T19:33:33;100612.52;;;3.96;95.25
76331;BME280;65148;51.912;15.570;2022-12-08T19:48:34;100624.77;;;3.87;96.54
76331;BME280;65148;51.912;15.570;2022-12-08T20:03:58;100630.64;;;3.67;96.35
76331;BME280;65148;51.912;15.570;2022-12-08T20:19:00;100640.95;;;3.42;96.75
76331;BME280;65148;51.912;15.570;2022-12-08T20:34:01;100645.72;;;3.23;97.44
76331;BME280;65148;51.912;15.570;2022-12-08T20:49:03;100663.58;;;3.01;98.32
76331;BME280;65148;51.912;15.570;2022-12-08T21:04:26;100671.64;;;3.01;97.50
76331;BME280;65148;51.912;15.570;2022-12-08T21:19:27;100663.98;;;2.81;99.35
76331;BME280;65148;51.912;15.570;2022-12-08T21:34:28;100670.29;;;2.75;99.82
76331;BME280;65148;51.912;15.570;2022-12-08T21:49:33;100675.30;;;2.71;99.93
76331;BME280;65148;51.912;15.570;2022-12-08T22:04:51;100680.32;;;2.91;98.40
76331;BME280;65148;51.912;15.570;2022-12-08T22:19:52;100687.21;;;2.87;98.76
76331;BME280;65148;51.912;15.570;2022-12-08T22:34:53;100678.77;;;2.95;97.98
76331;BME280;65148;51.912;15.570;2022-12-08T22:49:55;100688.73;;;2.83;98.46
76331;BME280;65148;51.912;15.570;2022-12-08T23:05:18;100694.60;;;2.80;98.35
76331;BME280;65148;51.912;15.570;2022-12-08T23:20:18;100697.14;;;2.86;98.40
76331;BME280;65148;51.912;15.570;2022-12-08T23:35:20;100687.09;;;2.82;98.58
76331;BME280;65148;51.912;15.570;2022-12-08T23:50:21;100693.50;;;2.92;97.88
